Аэропорт: Уйташ. Махачкала

ICAO: URML

METAR:
2018/09/23 11:00
URML 231100Z 13007MPS 9999 FEW008 SCT023CB 24/20 Q1016 R14/01//70 NOSIG RMK QFE762/1016
METAR:
2014/03/18 00:00
TAF URML 182241Z 1900/1909 32015G20MPS 5000 BR SCT030CB BKN100 530005 
      TEMPO 1900/1906 32023G28MPS 2000 SHRA SQ SCT007 SCT030CB BKN100